Time;durP1;ratioP1;P1;durP2;ratioP2;P2;SDS_P1;SDS_P2;PMS_P1;PMS_P2;Temp;Humidity;BMP_temperature;BMP_pressure;BME280_temperature;BME280_humidity;BME280_pressure;Samples;Min_cycle;Max_cycle;Signal;HPM_P1;HPM_P2
2023/09/19 00:00:46;;;;;;;3.13;1.77;;;17.90;99.90;;;-141.84;83.27;20610.59;4967093;28;20223;-60
2023/09/19 00:03:16;;;;;;;3.72;2.05;;;17.70;99.90;;;-141.84;83.01;20610.59;4981307;28;20319;-59
2023/09/19 00:05:44;;;;;;;3.45;1.85;;;17.70;99.90;;;-141.84;83.63;20574.00;4985564;28;20234;-61
2023/09/19 00:08:14;;;;;;;5.22;1.83;;;17.70;99.90;;;-141.84;83.36;20584.19;4977804;28;20235;-60
2023/09/19 00:10:44;;;;;;;3.25;1.73;;;17.60;99.90;;;-141.84;84.07;20563.84;4986302;28;20670;-60
2023/09/19 00:13:13;;;;;;;5.88;2.38;;;17.50;99.90;;;-141.84;85.05;20549.63;4986146;28;20227;-60
2023/09/19 00:15:48;;;;;;;4.28;2.03;;;17.50;99.90;;;-141.84;85.37;20561.81;4986150;28;20266;-59
2023/09/19 00:18:18;;;;;;;2.30;2.10;;;17.50;99.90;;;-141.84;84.19;20610.59;4977966;28;20219;-60
2023/09/19 00:20:49;;;;;;;2.55;1.92;;;17.50;99.90;;;-141.84;83.43;20596.38;4985706;28;20326;-59
2023/09/19 00:23:19;;;;;;;5.75;2.55;;;17.60;99.90;;;-141.84;84.15;20604.50;4985534;28;20621;-60
2023/09/19 00:25:50;;;;;;;3.15;2.20;;;17.60;99.90;;;-141.84;84.80;20565.88;4985248;28;20223;-60
2023/09/19 00:28:19;;;;;;;3.08;2.00;;;17.50;99.90;;;-141.84;85.42;20468.31;4978363;28;20226;-60
2023/09/19 00:30:49;;;;;;;2.38;2.17;;;17.50;99.90;;;-141.84;85.77;20531.31;4985736;28;20261;-60
2023/09/19 00:33:19;;;;;;;2.42;2.22;;;17.40;99.90;;;-141.84;86.43;20517.09;4985557;28;20273;-61
2023/09/19 00:35:51;;;;;;;2.30;2.10;;;17.40;99.90;;;-141.84;86.21;20515.06;4985036;28;20314;-59
2023/09/19 00:38:22;;;;;;;2.55;2.35;;;17.30;99.90;;;-141.84;86.43;20535.41;4977880;28;20706;-61
2023/09/19 00:40:53;;;;;;;2.67;2.28;;;17.30;99.90;;;-141.84;87.01;20460.19;4985102;28;20750;-59
2023/09/19 00:43:23;;;;;;;2.53;2.25;;;17.30;99.90;;;-141.84;87.42;20468.31;4985569;28;20302;-60
2023/09/19 00:45:54;;;;;;;2.53;2.15;;;17.20;99.90;;;-141.84;87.72;20458.16;4985817;28;20653;-59
2023/09/19 00:48:28;;;;;;;2.47;1.98;;;17.20;99.90;;;-141.84;87.99;20427.66;4978036;28;20234;-60
2023/09/19 00:51:03;;;;;;;2.75;2.08;;;17.10;99.90;;;-141.84;88.26;20435.78;4965484;28;20263;-60
2023/09/19 00:53:33;;;;;;;2.08;1.85;;;17.10;99.90;;;-141.84;88.45;20435.78;4965816;28;20905;-59
2023/09/19 00:56:07;;;;;;;2.85;2.25;;;17.10;99.90;;;-141.84;87.90;20456.13;4963545;28;20311;-61
2023/09/19 00:58:38;;;;;;;3.28;2.50;;;17.10;99.90;;;-141.84;88.16;20443.91;4973525;28;20326;-60
2023/09/19 01:01:07;;;;;;;2.95;2.22;;;17.10;99.90;;;-141.84;87.95;20429.69;4985369;28;20287;-60
2023/09/19 01:03:37;;;;;;;3.45;2.58;;;17.00;99.90;;;-141.84;88.40;20409.38;4985280;28;20246;-60
2023/09/19 01:06:07;;;;;;;4.20;2.60;;;17.00;99.90;;;-141.84;87.80;20447.97;4977238;28;20227;-61
2023/09/19 01:08:36;;;;;;;2.47;2.28;;;17.00;99.90;;;-141.84;88.14;20417.50;4984485;28;20235;-59
2023/09/19 01:11:16;;;;;;;3.00;2.47;;;17.00;99.90;;;-141.84;88.01;20403.25;4984616;28;20242;-59
2023/09/19 01:13:57;;;;;;;3.85;2.58;;;17.00;99.90;;;-141.84;87.54;20421.56;4984908;28;20306;-58
2023/09/19 01:16:43;;;;;;;3.38;2.47;;;17.00;99.90;;;-141.84;87.00;20486.59;4978653;28;20342;-58
2023/09/19 01:20:04;;;;;;;4.35;2.30;;;17.10;99.90;;;-141.84;86.78;20480.50;4997494;28;20242;-59
2023/09/19 01:22:47;;;;;;;4.00;2.70;;;17.10;99.90;;;-141.84;85.41;20513.03;5004385;28;20317;-61
2023/09/19 01:26:09;;;;;;;5.30;2.65;;;17.20;99.90;;;-141.84;86.03;20458.16;4992549;28;20281;-60
2023/09/19 01:28:55;;;;;;;4.45;2.75;;;17.20;99.90;;;-141.84;87.07;20415.47;4974994;28;20739;-59
2023/09/19 01:31:29;;;;;;;4.40;2.80;;;17.20;99.90;;;-141.84;86.51;20458.16;4984524;28;20660;-61
2023/09/19 01:34:01;;;;;;;2.55;2.35;;;17.10;99.90;;;-141.84;86.44;20464.25;4984253;28;20218;-60
2023/09/19 01:36:34;;;;;;;4.43;2.95;;;17.20;99.90;;;-141.84;86.86;20456.13;4982040;28;20211;-59
2023/09/19 01:39:09;;;;;;;5.95;2.90;;;17.10;99.90;;;-141.84;86.77;20435.78;4984200;28;20262;-59
2023/09/19 01:41:55;;;;;;;5.80;3.20;;;17.10;99.90;;;-141.84;87.27;20423.59;4984079;28;20256;-60
2023/09/19 01:44:39;;;;;;;4.25;2.47;;;17.10;99.90;;;-141.84;86.50;20431.72;4975890;28;20564;-60
2023/09/19 01:47:20;;;;;;;2.70;2.50;;;17.00;99.90;;;-141.84;87.99;20403.25;4984049;28;20262;-60
2023/09/19 01:50:04;;;;;;;2.45;2.22;;;16.90;99.90;;;-141.84;88.90;20360.59;4990339;28;20231;-60
2023/09/19 01:52:43;;;;;;;5.05;2.53;;;16.80;99.90;;;-141.84;89.59;20358.56;4984750;28;20275;-60
2023/09/19 01:55:17;;;;;;;4.32;2.60;;;16.80;99.90;;;-141.84;89.62;20330.09;4983448;28;20628;-60
2023/09/19 01:57:55;;;;;;;3.38;2.97;;;16.70;99.90;;;-141.84;89.74;20334.16;4984462;28;20628;-60
2023/09/19 02:00:26;;;;;;;2.65;2.42;;;16.60;99.90;;;-141.84;90.09;20313.84;4976486;28;25615;-60
2023/09/19 02:03:00;;;;;;;2.55;2.35;;;16.60;99.90;;;-141.84;90.40;20307.72;4983548;28;20263;-61
2023/09/19 02:05:28;;;;;;;2.53;2.33;;;16.60;99.90;;;-141.84;88.27;20387.00;4983552;28;20846;-59
2023/09/19 02:07:58;;;;;;;2.47;2.25;;;16.50;99.90;;;-141.84;88.41;20405.31;4983956;28;20226;-60
2023/09/19 02:10:27;;;;;;;3.20;2.50;;;16.70;99.90;;;-141.84;87.06;20399.19;4978341;28;20706;-61
2023/09/19 02:12:56;;;;;;;4.05;2.03;;;16.80;99.90;;;-141.84;86.86;20391.06;4983992;28;20211;-60
2023/09/19 02:15:24;;;;;;;2.20;2.00;;;16.80;99.90;;;-141.84;85.03;20452.06;4983396;28;20270;-60
2023/09/19 02:17:53;;;;;;;2.15;1.75;;;16.90;99.90;;;-141.84;85.50;20441.88;4985332;28;20274;-61
2023/09/19 02:20:22;;;;;;;2.47;1.90;;;17.00;99.90;;;-141.84;84.90;20419.53;4995120;28;20920;-59
2023/09/19 02:22:52;;;;;;;1.98;1.80;;;17.00;99.90;;;-141.84;85.57;20454.09;5003469;28;20280;-59
2023/09/19 02:25:20;;;;;;;2.33;1.85;;;17.00;99.90;;;-141.84;85.47;20439.84;4990698;28;20238;-61
2023/09/19 02:27:48;;;;;;;2.28;1.88;;;17.00;99.90;;;-141.84;85.81;20452.06;4983936;28;20215;-60
2023/09/19 02:30:20;;;;;;;2.25;1.80;;;16.90;99.90;;;-141.84;85.33;20409.38;4976198;28;20286;-59
2023/09/19 02:32:49;;;;;;;2.55;2.00;;;17.00;99.90;;;-141.84;85.50;20389.03;4983390;28;20239;-60
2023/09/19 02:35:19;;;;;;;3.83;1.90;;;16.90;99.90;;;-141.84;84.32;20456.13;4982903;28;20703;-59
2023/09/19 02:37:49;;;;;;;2.72;1.75;;;17.00;99.90;;;-141.84;82.37;20492.72;4983617;28;20227;-60
2023/09/19 02:40:21;;;;;;;3.10;1.80;;;17.10;99.90;;;-141.84;82.58;20458.16;4975891;28;20714;-60
2023/09/19 02:42:53;;;;;;;2.75;1.70;;;17.20;99.90;;;-141.84;81.93;20523.19;4983703;28;20211;-59
2023/09/19 02:45:23;;;;;;;3.08;1.55;;;17.30;99.90;;;-141.84;82.48;20502.88;4983355;28;20396;-59
2023/09/19 02:47:51;;;;;;;2.80;1.80;;;17.30;99.90;;;-141.84;80.27;20569.94;4985204;28;20604;-60
2023/09/19 02:50:20;;;;;;;3.30;1.70;;;17.40;99.90;;;-141.84;79.35;20639.06;4979398;28;20227;-60
2023/09/19 02:52:50;;;;;;;1.90;1.65;;;17.50;99.90;;;-141.84;79.37;20630.94;4983145;28;20249;-62
2023/09/19 02:55:21;;;;;;;3.10;1.75;;;17.50;99.90;;;-141.84;80.08;20582.16;4983335;28;20309;-62
2023/09/19 02:57:52;;;;;;;1.63;1.52;;;17.50;99.90;;;-141.84;80.26;20559.78;4983165;28;20641;-63
2023/09/19 03:00:22;;;;;;;3.22;1.73;;;17.50;99.90;;;-141.84;80.77;20555.72;4975149;28;20727;-62
2023/09/19 03:02:51;;;;;;;1.80;1.70;;;17.40;99.90;;;-141.84;79.12;20600.44;4984946;28;20722;-63
2023/09/19 03:05:20;;;;;;;2.95;1.58;;;17.50;99.90;;;-141.84;78.94;20574.00;4985168;28;20235;-62
2023/09/19 03:07:51;;;;;;;3.40;1.83;;;17.50;99.90;;;-141.84;79.12;20574.00;4985763;28;20796;-62
2023/09/19 03:10:20;;;;;;;2.25;1.60;;;17.50;99.90;;;-141.84;79.36;20547.59;4978034;28;20302;-63
2023/09/19 03:12:50;;;;;;;3.08;1.50;;;17.40;99.90;;;-141.84;78.50;20596.38;4985969;28;20211;-62
2023/09/19 03:15:18;;;;;;;2.70;1.50;;;17.50;99.90;;;-141.84;79.07;20582.16;4985950;28;20281;-63
2023/09/19 03:17:49;;;;;;;1.73;1.30;;;17.50;99.90;;;-141.84;78.02;20612.63;4987062;28;20296;-62
2023/09/19 03:20:18;;;;;;;1.92;1.48;;;17.50;99.90;;;-141.84;78.17;20622.81;4997131;28;20237;-62
2023/09/19 03:22:47;;;;;;;3.03;1.73;;;17.50;99.90;;;-141.84;78.31;20610.59;5004597;28;20234;-62
2023/09/19 03:25:19;;;;;;;1.88;1.60;;;17.60;99.90;;;-141.84;78.12;20614.66;4993625;28;20238;-62
2023/09/19 03:27:47;;;;;;;2.25;1.42;;;17.50;99.90;;;-141.84;79.24;20584.19;4986028;28;20557;-63
2023/09/19 03:30:16;;;;;;;2.10;1.58;;;17.40;99.90;;;-141.84;79.40;20523.19;4977893;28;20265;-62
2023/09/19 03:32:47;;;;;;;1.58;1.33;;;17.40;99.90;;;-141.84;78.87;20602.47;4985496;28;20235;-62
2023/09/19 03:35:16;;;;;;;2.38;1.67;;;17.40;99.90;;;-141.84;79.89;20521.16;4984761;28;20727;-62
2023/09/19 03:37:45;;;;;;;1.88;1.50;;;17.30;99.90;;;-141.84;78.22;20588.25;4985565;28;20731;-62
2023/09/19 03:40:14;;;;;;;2.80;1.58;;;17.40;99.90;;;-141.84;79.47;20571.97;4977752;28;20260;-62
2023/09/19 03:42:43;;;;;;;1.95;1.60;;;17.30;99.90;;;-141.84;80.28;20515.06;4985828;28;20231;-62
2023/09/19 03:45:12;;;;;;;1.67;1.48;;;17.20;99.90;;;-141.84;80.36;20517.09;4985327;28;20285;-64
2023/09/19 03:47:41;;;;;;;2.17;1.50;;;17.20;99.90;;;-141.84;81.03;20480.50;4985803;28;20238;-64
2023/09/19 03:50:12;;;;;;;2.00;1.60;;;17.10;99.90;;;-141.84;80.55;20500.84;4982440;28;20258;-62
2023/09/19 03:52:40;;;;;;;1.90;1.70;;;17.10;99.90;;;-141.84;80.59;20519.13;4985001;28;20699;-63
2023/09/19 03:55:09;;;;;;;2.17;1.80;;;17.00;99.90;;;-141.84;81.25;20468.31;4984704;28;20231;-63
2023/09/19 03:57:38;;;;;;;1.83;1.60;;;17.00;99.90;;;-141.84;81.90;20433.75;4985642;28;20317;-62
2023/09/19 04:00:11;;;;;;;1.73;1.60;;;16.90;99.90;;;-141.84;81.16;20472.38;4940906;28;1089904;-62
2023/09/19 04:02:40;;;;;;;2.70;1.48;;;16.90;99.90;;;-141.84;80.88;20468.31;4986216;28;20231;-64
2023/09/19 04:05:10;;;;;;;2.60;1.63;;;16.90;99.90;;;-141.84;80.99;20488.63;4985906;28;20323;-63
2023/09/19 04:07:38;;;;;;;2.60;1.67;;;16.90;99.90;;;-141.84;80.88;20484.56;4985869;28;20459;-63
2023/09/19 04:10:11;;;;;;;2.53;1.50;;;16.90;99.90;;;-141.84;81.67;20476.44;4978616;28;20243;-63
2023/09/19 04:12:40;;;;;;;1.90;1.65;;;16.80;99.90;;;-141.84;81.43;20458.16;4986186;28;20298;-62
2023/09/19 04:15:13;;;;;;;2.22;1.40;;;16.80;99.90;;;-141.84;81.94;20399.19;4985880;28;20231;-62
2023/09/19 04:17:43;;;;;;;2.95;1.75;;;16.70;99.90;;;-141.84;82.33;20425.63;4986841;28;20222;-62
2023/09/19 04:20:12;;;;;;;3.30;1.90;;;16.70;99.90;;;-141.84;82.39;20407.34;4997658;28;20234;-62
2023/09/19 04:22:41;;;;;;;2.72;1.70;;;16.60;99.90;;;-141.84;81.75;20445.94;5004878;28;20238;-64
2023/09/19 04:25:10;;;;;;;2.63;1.70;;;16.70;99.90;;;-141.84;81.37;20437.81;4994484;28;20322;-64
2023/09/19 04:27:38;;;;;;;2.22;1.77;;;16.70;99.90;;;-141.84;81.16;20458.16;4985842;28;20298;-62
2023/09/19 04:30:11;;;;;;;2.05;1.70;;;16.70;99.90;;;-141.84;82.08;20431.72;4977911;28;20231;-62
2023/09/19 04:32:40;;;;;;;2.70;1.52;;;16.60;99.90;;;-141.84;81.23;20443.91;4986141;28;20585;-62
2023/09/19 04:35:10;;;;;;;2.15;1.80;;;16.60;99.90;;;-141.84;82.10;20403.25;4985735;28;20247;-62
2023/09/19 04:37:40;;;;;;;2.97;1.90;;;16.60;99.90;;;-141.84;80.34;20500.84;4985188;28;20286;-63
2023/09/19 04:40:12;;;;;;;1.60;1.50;;;16.70;99.90;;;-141.84;80.08;20437.81;4977898;28;20231;-62
2023/09/19 04:42:42;;;;;;;2.42;1.58;;;16.70;99.90;;;-141.84;79.89;20480.50;4985483;28;20239;-62
2023/09/19 04:45:12;;;;;;;1.73;1.40;;;16.80;99.90;;;-141.84;80.25;20488.63;4985361;28;20239;-62
2023/09/19 04:47:40;;;;;;;4.63;1.70;;;16.70;99.90;;;-141.84;79.69;20460.19;4984174;28;20297;-62
2023/09/19 04:50:13;;;;;;;2.15;1.70;;;16.80;99.90;;;-141.84;80.07;20450.03;4976814;28;20231;-62
2023/09/19 04:52:44;;;;;;;2.60;1.60;;;16.70;99.90;;;-141.84;79.10;20502.88;4985297;28;20619;-62
2023/09/19 04:55:16;;;;;;;2.03;1.55;;;16.80;99.90;;;-141.84;78.05;20529.28;4985117;28;20231;-61
2023/09/19 04:57:46;;;;;;;1.80;1.70;;;16.90;99.90;;;-141.84;79.42;20423.59;4985558;28;20203;-61
2023/09/19 05:00:18;;;;;;;2.03;1.70;;;16.80;99.90;;;-141.84;79.08;20460.19;4978030;28;20331;-62
2023/09/19 05:02:49;;;;;;;2.70;1.50;;;16.80;99.90;;;-141.84;78.91;20482.53;4984433;28;20235;-62
2023/09/19 05:05:19;;;;;;;2.03;1.52;;;16.70;99.90;;;-141.84;78.97;20482.53;4984778;28;20229;-62
2023/09/19 05:07:48;;;;;;;2.75;1.75;;;16.70;99.90;;;-141.84;78.52;20460.19;4984937;28;20223;-63
2023/09/19 05:10:18;;;;;;;2.17;1.58;;;16.70;99.90;;;-141.84;77.37;20498.81;4976530;28;20253;-62
2023/09/19 05:12:48;;;;;;;1.77;1.67;;;16.80;99.90;;;-141.84;78.08;20462.22;4985213;28;20220;-63
2023/09/19 05:15:17;;;;;;;2.70;1.50;;;16.80;99.90;;;-141.84;78.22;20470.34;4985008;28;20208;-62
2023/09/19 05:17:51;;;;;;;1.95;1.40;;;16.80;99.90;;;-141.84;77.92;20476.44;4983984;28;20254;-62
2023/09/19 05:20:32;;;;;;;2.00;1.60;;;16.80;99.90;;;-141.84;78.14;20472.38;4977196;28;20710;-64
2023/09/19 05:23:02;;;;;;;1.67;1.40;;;16.70;99.90;;;-141.84;77.66;20488.63;4984520;28;20313;-62
2023/09/19 05:25:37;;;;;;;1.63;1.35;;;16.70;99.90;;;-141.84;77.28;20513.03;4983424;28;20227;-62
2023/09/19 05:28:07;;;;;;;1.60;1.50;;;16.70;99.90;;;-141.84;77.58;20470.34;4976564;28;20211;-63
2023/09/19 05:30:38;;;;;;;2.97;1.48;;;16.70;99.90;;;-141.84;78.63;20431.72;4985069;28;20285;-63
2023/09/19 05:33:07;;;;;;;1.92;1.50;;;16.50;99.90;;;-141.84;79.34;20413.44;4983896;28;20290;-61
2023/09/19 05:35:37;;;;;;;1.73;1.45;;;16.50;99.90;;;-141.84;78.96;20423.59;4984472;28;20371;-62
2023/09/19 05:38:08;;;;;;;1.98;1.60;;;16.50;99.90;;;-141.84;78.23;20431.72;4976382;28;20314;-62
2023/09/19 05:40:38;;;;;;;3.67;1.83;;;16.50;99.90;;;-141.84;76.59;20478.47;4995524;28;20228;-61
2023/09/19 05:43:06;;;;;;;1.83;1.67;;;16.60;99.90;;;-141.84;77.78;20490.66;4964408;28;20908;-62
2023/09/19 05:45:37;;;;;;;4.00;1.60;;;16.60;99.90;;;-141.84;77.20;20500.84;4965243;28;20514;-62
2023/09/19 05:48:11;;;;;;;2.70;1.85;;;16.60;99.90;;;-141.84;77.75;20478.47;4961210;28;20710;-63
2023/09/19 05:50:39;;;;;;;2.15;1.58;;;16.70;99.90;;;-141.84;77.93;20443.91;4965844;28;20279;-62
2023/09/19 05:53:08;;;;;;;2.15;1.60;;;16.60;99.90;;;-141.84;78.42;20417.50;4964583;28;20240;-63
2023/09/19 05:55:36;;;;;;;3.45;1.83;;;16.60;99.90;;;-141.84;78.78;20464.25;4964408;28;20311;-61
2023/09/19 05:58:04;;;;;;;2.92;1.50;;;16.50;99.90;;;-141.84;78.02;20423.59;4956735;28;20208;-62
2023/09/19 06:00:33;;;;;;;2.85;1.65;;;16.50;99.90;;;-141.84;78.07;20456.13;4964808;28;20216;-62
2023/09/19 06:03:05;;;;;;;2.45;1.80;;;16.50;99.90;;;-141.84;77.46;20464.25;4963563;28;20240;-62
2023/09/19 06:05:34;;;;;;;2.90;1.48;;;16.60;99.90;;;-141.84;77.48;20445.94;4964555;28;20267;-62
2023/09/19 06:08:07;;;;;;;3.53;1.63;;;16.60;99.90;;;-141.84;77.64;20405.31;4961385;28;20491;-63
2023/09/19 06:10:36;;;;;;;1.90;1.67;;;16.80;99.90;;;-141.84;77.18;20460.19;4978434;28;20269;-63
2023/09/19 06:13:06;;;;;;;2.40;1.42;;;16.60;99.90;;;-141.84;77.85;20468.31;4983223;28;20216;-62
2023/09/19 06:15:36;;;;;;;3.00;1.88;;;16.60;99.90;;;-141.84;77.76;20468.31;4983987;28;20208;-63
2023/09/19 06:18:06;;;;;;;4.32;1.70;;;16.60;99.90;;;-141.84;77.73;20466.28;4978350;28;20342;-63
2023/09/19 06:20:34;;;;;;;1.50;1.38;;;16.60;99.90;;;-141.84;76.17;20504.91;4983567;28;20238;-62
2023/09/19 06:23:04;;;;;;;2.30;1.40;;;16.70;99.90;;;-141.84;75.51;20537.44;4983403;28;20235;-63
2023/09/19 06:25:32;;;;;;;1.63;1.40;;;16.80;99.90;;;-141.84;74.98;20586.22;4983037;28;20711;-61
2023/09/19 06:28:05;;;;;;;2.95;1.70;;;16.90;99.90;;;-141.84;74.04;20610.59;4981619;28;20207;-61
2023/09/19 06:30:34;;;;;;;1.50;1.25;;;17.00;99.90;;;-141.84;73.43;20663.47;4983641;28;20215;-63
2023/09/19 06:33:03;;;;;;;2.65;1.50;;;17.20;99.90;;;-141.84;73.06;20671.59;4982898;28;20278;-62
2023/09/19 06:35:34;;;;;;;1.95;1.50;;;17.30;99.90;;;-141.84;71.80;20744.78;4982846;28;20314;-61
2023/09/19 06:38:06;;;;;;;3.60;1.40;;;17.50;99.90;;;-141.84;70.91;20773.22;4976850;28;20258;-62
2023/09/19 06:40:35;;;;;;;2.85;1.70;;;17.60;99.90;;;-141.84;70.69;20797.63;4983247;28;20310;-62
2023/09/19 06:43:06;;;;;;;2.95;1.60;;;17.70;99.90;;;-141.84;69.38;20850.47;4983091;28;20261;-62
2023/09/19 06:45:34;;;;;;;4.07;1.80;;;17.80;99.90;;;-141.84;67.87;20927.72;4983412;28;20686;-62
2023/09/19 06:48:03;;;;;;;3.22;1.42;;;18.00;99.90;;;-141.84;68.23;20911.47;4979015;28;20278;-64
2023/09/19 06:50:35;;;;;;;3.10;1.60;;;18.10;99.90;;;-141.84;67.78;20952.13;4983215;28;20604;-62
2023/09/19 06:53:04;;;;;;;3.58;1.50;;;18.30;99.90;;;-141.84;67.67;20968.38;4982093;28;20286;-62
2023/09/19 06:55:32;;;;;;;1.75;1.45;;;18.50;99.90;;;-141.84;66.54;21025.31;4981714;28;20226;-61
2023/09/19 06:58:01;;;;;;;2.55;1.40;;;18.60;99.90;;;-141.84;66.94;21019.22;4980739;28;20214;-61
2023/09/19 07:00:32;;;;;;;3.47;1.67;;;18.80;99.90;;;-141.84;66.19;21086.31;4982046;28;20617;-62
2023/09/19 07:03:03;;;;;;;1.67;1.58;;;18.80;99.90;;;-141.84;66.58;21116.78;4981665;28;20223;-62
2023/09/19 07:05:37;;;;;;;1.20;1.10;;;19.00;99.90;;;-141.84;64.53;21216.41;4983236;28;20234;-62
2023/09/19 07:08:10;;;;;;;1.83;1.50;;;19.20;99.90;;;-141.84;63.51;21214.38;4975447;28;20234;-62
2023/09/19 07:10:40;;;;;;;3.10;1.48;;;19.30;99.90;;;-141.84;62.26;21299.78;4983432;28;20227;-62
2023/09/19 07:13:10;;;;;;;2.20;1.33;;;19.50;99.90;;;-141.84;60.91;21307.91;4983503;28;20320;-62
2023/09/19 07:15:46;;;;;;;3.20;1.40;;;19.60;99.90;;;-141.84;60.82;21362.81;4984242;28;20293;-62
2023/09/19 07:18:16;;;;;;;2.50;1.30;;;19.70;99.90;;;-141.84;61.33;21297.75;4975905;28;20222;-63
2023/09/19 07:20:49;;;;;;;2.20;1.35;;;19.70;99.90;;;-141.84;61.38;21314.00;4983035;28;20314;-62
2023/09/19 07:23:19;;;;;;;1.92;1.40;;;19.70;99.90;;;-141.84;60.73;21356.69;4982552;28;20270;-63
2023/09/19 07:25:48;;;;;;;2.45;1.23;;;19.70;99.90;;;-141.84;61.12;21303.84;4982879;28;20234;-62
2023/09/19 07:28:19;;;;;;;4.13;1.52;;;19.60;99.90;;;-141.84;61.74;21283.50;4975506;28;20231;-62
2023/09/19 07:30:47;;;;;;;2.78;1.27;;;19.50;99.90;;;-141.84;60.56;21299.78;4982867;28;20203;-61
2023/09/19 07:33:15;;;;;;;3.40;1.55;;;19.40;99.90;;;-141.84;59.45;21295.72;4983177;28;20211;-63
2023/09/19 07:35:48;;;;;;;2.15;1.48;;;19.40;99.90;;;-141.84;60.30;21255.03;4982513;28;20235;-62
2023/09/19 07:38:17;;;;;;;3.50;1.30;;;19.40;99.90;;;-141.84;58.80;21332.31;4975155;28;20776;-61
2023/09/19 07:40:45;;;;;;;3.47;1.20;;;19.50;99.90;;;-141.84;59.72;21326.22;4983072;28;20887;-62
2023/09/19 07:43:14;;;;;;;2.38;1.20;;;19.60;99.90;;;-141.84;58.38;21395.34;4983018;28;20266;-62
2023/09/19 07:45:42;;;;;;;2.42;1.55;;;19.80;99.90;;;-141.84;57.74;21397.38;4983466;28;20266;-62
2023/09/19 07:48:14;;;;;;;2.45;1.27;;;19.80;99.90;;;-141.84;57.01;21448.19;4976706;28;20458;-62
2023/09/19 07:50:44;;;;;;;4.13;1.50;;;20.00;99.90;;;-141.84;57.28;21468.53;4986884;28;20258;-62
2023/09/19 07:53:16;;;;;;;2.28;1.17;;;20.10;99.90;;;-141.84;56.52;21482.75;4986145;28;20237;-62
2023/09/19 07:55:47;;;;;;;2.10;1.30;;;20.10;99.90;;;-141.84;55.77;21529.53;4986264;28;20247;-62
2023/09/19 07:58:16;;;;;;;3.20;1.10;;;20.20;99.90;;;-141.84;55.90;21503.09;4978909;28;20239;-62
2023/09/19 08:00:45;;;;;;;2.50;1.25;;;20.20;99.90;;;-141.84;55.47;21537.66;4986842;28;20216;-61
2023/09/19 08:03:14;;;;;;;2.75;1.30;;;20.30;99.90;;;-141.84;54.88;21614.94;4985645;28;20243;-61
2023/09/19 08:05:45;;;;;;;3.58;1.30;;;20.50;99.90;;;-141.84;54.43;21606.78;4986137;28;20254;-61
2023/09/19 08:08:15;;;;;;;5.05;1.50;;;20.50;99.90;;;-141.84;54.91;21537.66;4977644;28;20235;-63
2023/09/19 08:10:45;;;;;;;5.97;1.27;;;20.40;99.90;;;-141.84;55.18;21553.94;4986038;28;20322;-62
2023/09/19 08:13:16;;;;;;;3.25;1.30;;;20.40;99.90;;;-141.84;55.80;21564.09;4986577;28;20232;-63
2023/09/19 08:15:45;;;;;;;2.80;1.13;;;20.40;99.90;;;-141.84;55.62;21592.56;4986401;28;20207;-62
2023/09/19 08:18:14;;;;;;;4.40;1.67;;;20.30;99.90;;;-141.84;56.69;21562.06;4978808;28;20231;-62
2023/09/19 08:20:45;;;;;;;1.88;1.15;;;20.40;99.90;;;-141.84;56.07;21541.72;4985891;28;20317;-61
2023/09/19 08:23:18;;;;;;;2.75;1.40;;;20.30;99.90;;;-141.84;56.54;21543.75;4985749;28;20657;-62
2023/09/19 08:25:46;;;;;;;3.17;1.23;;;20.20;99.90;;;-141.84;56.44;21527.50;4985667;28;20227;-62
2023/09/19 08:28:18;;;;;;;2.60;1.33;;;20.20;99.90;;;-141.84;55.95;21492.94;4977576;28;20227;-61
2023/09/19 08:30:47;;;;;;;3.80;1.20;;;20.00;99.90;;;-141.84;56.08;21470.56;4985741;28;20219;-62
2023/09/19 08:33:15;;;;;;;3.67;1.35;;;20.00;99.90;;;-141.84;57.57;21436.00;4985555;28;20203;-62
2023/09/19 08:35:45;;;;;;;4.75;1.40;;;19.90;99.90;;;-141.84;56.98;21466.50;4985329;28;20234;-61
2023/09/19 08:38:15;;;;;;;3.33;1.48;;;19.90;99.90;;;-141.84;56.99;21478.69;4978268;28;20246;-62
2023/09/19 08:40:43;;;;;;;2.30;1.40;;;20.00;99.90;;;-141.84;56.25;21517.31;4985840;28;20734;-62
2023/09/19 08:43:12;;;;;;;2.83;1.20;;;20.10;99.90;;;-141.84;56.63;21472.59;4985241;28;21077;-62
2023/09/19 08:45:41;;;;;;;2.47;1.33;;;20.10;99.90;;;-141.84;56.79;21486.81;4985871;28;20221;-63
2023/09/19 08:48:24;;;;;;;4.13;1.52;;;20.10;99.90;;;-141.84;56.84;21474.63;4977607;28;20675;-62
2023/09/19 08:51:01;;;;;;;3.17;1.10;;;20.00;99.90;;;-141.84;56.21;21440.06;4985165;28;20235;-61
2023/09/19 08:53:41;;;;;;;2.58;1.10;;;20.00;99.90;;;-141.84;56.78;21452.25;4984813;28;20829;-61
2023/09/19 08:56:14;;;;;;;2.63;1.10;;;19.90;99.90;;;-141.84;56.56;21474.63;4977574;28;20659;-62
2023/09/19 08:58:48;;;;;;;2.20;1.40;;;19.90;99.90;;;-141.84;56.64;21494.97;4983351;28;20726;-62
2023/09/19 09:01:24;;;;;;;4.85;1.48;;;19.90;99.90;;;-141.84;57.09;21464.47;4985382;28;20241;-62
2023/09/19 09:03:55;;;;;;;3.78;1.20;;;20.00;99.90;;;-141.84;56.89;21505.13;4984945;28;20238;-62
2023/09/19 09:06:25;;;;;;;4.25;1.65;;;20.00;99.90;;;-141.84;56.27;21537.66;4977888;28;20761;-62
2023/09/19 09:08:55;;;;;;;2.88;1.35;;;20.20;99.90;;;-141.84;54.74;21641.34;4985021;28;20317;-62
2023/09/19 09:11:24;;;;;;;3.63;1.15;;;20.50;99.90;;;-141.84;54.48;21684.06;4984638;28;20258;-62
2023/09/19 09:13:53;;;;;;;5.85;1.60;;;20.60;99.90;;;-141.84;54.33;21688.13;4985110;28;20235;-63
2023/09/19 09:16:25;;;;;;;3.03;1.45;;;20.70;99.90;;;-141.84;52.54;21665.75;4977544;28;20243;-62
2023/09/19 09:18:54;;;;;;;3.45;1.30;;;20.80;99.90;;;-141.84;52.37;21637.28;4984278;28;20750;-62
2023/09/19 09:21:26;;;;;;;3.45;1.17;;;20.70;99.90;;;-141.84;51.96;21667.78;4985670;28;20653;-62
2023/09/19 09:23:55;;;;;;;1.80;1.23;;;20.70;99.90;;;-141.84;51.73;21653.56;4984297;28;20271;-62
2023/09/19 09:26:43;;;;;;;1.65;1.20;;;20.70;99.90;;;-141.84;51.53;21728.78;4977955;28;20631;-63
2023/09/19 09:29:12;;;;;;;2.70;1.40;;;20.70;99.90;;;-141.84;51.28;21753.19;4984213;28;20231;-61
2023/09/19 09:31:43;;;;;;;1.05;0.95;;;20.90;99.90;;;-141.84;51.37;21745.06;4984895;28;20259;-61
2023/09/19 09:34:13;;;;;;;3.88;1.58;;;21.00;99.90;;;-141.84;49.67;21885.38;4977058;28;20235;-62
2023/09/19 09:36:42;;;;;;;3.45;1.58;;;21.20;99.90;;;-141.84;48.12;21810.13;4985323;28;20298;-62
2023/09/19 09:39:24;;;;;;;3.00;1.50;;;21.30;99.90;;;-141.84;47.42;21867.06;4984345;28;20318;-62
2023/09/19 09:41:52;;;;;;;2.50;1.48;;;21.30;99.90;;;-141.84;47.60;21875.19;4984464;28;20301;-63
2023/09/19 09:44:21;;;;;;;2.40;1.40;;;21.30;99.90;;;-141.84;46.65;21891.47;4976164;28;20270;-62
2023/09/19 09:47:27;;;;;;;2.35;1.40;;;21.40;99.90;;;-141.84;46.62;21928.06;4983849;28;20322;-62
2023/09/19 09:50:06;;;;;;;2.60;1.15;;;21.40;99.90;;;-141.84;46.98;21893.50;4983318;28;20297;-63
2023/09/19 09:52:46;;;;;;;3.17;1.40;;;21.40;99.90;;;-141.84;46.49;21901.63;4984385;28;20234;-62
2023/09/19 09:55:18;;;;;;;2.45;1.42;;;21.40;99.90;;;-141.84;46.47;21860.97;4984383;28;20219;-63
2023/09/19 09:57:47;;;;;;;2.63;1.20;;;21.40;99.90;;;-141.84;45.55;21869.09;4983635;28;20656;-64
2023/09/19 10:00:20;;;;;;;3.58;1.50;;;21.40;99.90;;;-141.84;47.22;21808.09;4976411;28;20295;-63
2023/09/19 10:02:49;;;;;;;2.78;1.50;;;21.20;99.90;;;-141.84;46.70;21822.31;4983606;28;20313;-62
2023/09/19 10:05:34;;;;;;;3.75;1.67;;;21.10;99.90;;;-141.84;45.61;21836.56;4983569;28;20628;-62
2023/09/19 10:08:13;;;;;;;2.92;1.60;;;21.00;99.90;;;-141.84;46.79;21789.78;4981171;28;20227;-62
2023/09/19 10:10:53;;;;;;;4.90;1.42;;;21.00;99.90;;;-141.84;45.99;21812.16;4983465;28;20234;-62
2023/09/19 10:13:27;;;;;;;5.05;1.40;;;21.00;99.90;;;-141.84;46.91;21787.75;4983897;28;20235;-62
2023/09/19 10:15:58;;;;;;;2.47;1.50;;;21.00;99.90;;;-141.84;47.38;21802.00;4984029;28;20642;-62
2023/09/19 10:18:29;;;;;;;3.47;1.40;;;21.00;99.90;;;-141.84;46.77;21757.25;4976785;28;20226;-63
2023/09/19 10:20:58;;;;;;;2.90;1.40;;;20.90;99.90;;;-141.84;47.23;21755.22;4983304;28;20227;-64
2023/09/19 10:23:30;;;;;;;2.42;1.55;;;20.80;99.90;;;-141.84;47.19;21704.38;4983441;28;20309;-62